TAF/METAR LISTING

Current time:9/19/6:44 Z
Looking Back to:9/19/06:44 Z, going back 0 hour(s)

METAR:

PAFA 190553Z 00000KT 10SM FEW080 BKN100 BKN120 08/05 A2960 RMK
AO2 SLP028 T00780050 10117 20072 53010 =

______________________________________

TAF:
TAFAFA
TAF
PAFA 190522Z 1906/2012 VRB04KT P6SM SCT025 BKN050 BKN100
FM191200 VRB04KT P6SM -SHRA SCT025 BKN035 OVC050
FM191800 VRB06KT P6SM -SHRA SCT015 BKN025 OVC035
FM192100 VRB05KT P6SM VCSH SCT025 BKN035 OVC100 =